sensor_id;sensor_type;location;lat;lon;timestamp;pressure;altitude;pressure_sealevel;temperature;humidity
22181;BME280;11256;50.830;12.834;2023-04-27T00:03:33;97805.28;;;7.63;49.78
22181;BME280;11256;50.830;12.834;2023-04-27T00:08:33;97791.69;;;7.48;49.91
22181;BME280;11256;50.830;12.834;2023-04-27T00:13:34;97795.97;;;7.44;49.86
22181;BME280;11256;50.830;12.834;2023-04-27T00:18:34;97803.78;;;7.45;49.82
22181;BME280;11256;50.830;12.834;2023-04-27T00:23:35;97803.72;;;7.35;49.98
22181;BME280;11256;50.830;12.834;2023-04-27T00:28:36;97796.09;;;7.27;49.87
22181;BME280;11256;50.830;12.834;2023-04-27T00:33:36;97787.06;;;7.12;49.95
22181;BME280;11256;50.830;12.834;2023-04-27T00:38:36;97804.84;;;7.13;50.23
22181;BME280;11256;50.830;12.834;2023-04-27T00:43:43;97793.59;;;6.89;50.56
22181;BME280;11256;50.830;12.834;2023-04-27T00:48:44;97807.41;;;6.98;49.96
22181;BME280;11256;50.830;12.834;2023-04-27T00:53:45;97815.13;;;6.89;50.54
22181;BME280;11256;50.830;12.834;2023-04-27T00:58:46;97814.50;;;6.82;50.50
22181;BME280;11256;50.830;12.834;2023-04-27T01:03:46;97820.09;;;6.76;50.36
22181;BME280;11256;50.830;12.834;2023-04-27T01:08:47;97818.09;;;6.66;50.69
22181;BME280;11256;50.830;12.834;2023-04-27T01:13:48;97821.00;;;6.60;50.67
22181;BME280;11256;50.830;12.834;2023-04-27T01:18:48;97818.25;;;6.55;50.88
22181;BME280;11256;50.830;12.834;2023-04-27T01:23:48;97800.84;;;6.41;50.90
22181;BME280;11256;50.830;12.834;2023-04-27T01:28:49;97809.91;;;6.35;51.00
22181;BME280;11256;50.830;12.834;2023-04-27T01:33:49;97818.50;;;6.32;51.18
22181;BME280;11256;50.830;12.834;2023-04-27T01:38:50;97802.72;;;6.19;51.12
22181;BME280;11256;50.830;12.834;2023-04-27T01:43:50;97815.63;;;6.17;51.26
22181;BME280;11256;50.830;12.834;2023-04-27T01:48:50;97808.53;;;6.11;51.49
22181;BME280;11256;50.830;12.834;2023-04-27T01:53:51;97818.72;;;6.09;51.23
22181;BME280;11256;50.830;12.834;2023-04-27T01:58:52;97822.66;;;6.01;51.54
22181;BME280;11256;50.830;12.834;2023-04-27T02:03:52;97824.94;;;5.93;51.39
22181;BME280;11256;50.830;12.834;2023-04-27T02:08:52;97798.25;;;5.70;51.90
22181;BME280;11256;50.830;12.834;2023-04-27T02:13:53;97828.81;;;5.80;51.58
22181;BME280;11256;50.830;12.834;2023-04-27T02:18:53;97813.72;;;5.63;51.72
22181;BME280;11256;50.830;12.834;2023-04-27T02:23:55;97820.09;;;5.57;51.47
22181;BME280;11256;50.830;12.834;2023-04-27T02:28:57;97841.50;;;5.52;51.39
22181;BME280;11256;50.830;12.834;2023-04-27T02:33:57;97830.34;;;5.43;51.65
22181;BME280;11256;50.830;12.834;2023-04-27T02:38:58;97838.66;;;5.42;51.78
22181;BME280;11256;50.830;12.834;2023-04-27T02:43:59;97826.59;;;5.28;51.83
22181;BME280;11256;50.830;12.834;2023-04-27T02:48:59;97839.38;;;5.21;51.49
22181;BME280;11256;50.830;12.834;2023-04-27T02:53:59;97840.84;;;5.12;52.01
22181;BME280;11256;50.830;12.834;2023-04-27T02:59:00;97843.44;;;5.07;52.31
22181;BME280;11256;50.830;12.834;2023-04-27T03:04:00;97839.00;;;5.01;52.40
22181;BME280;11256;50.830;12.834;2023-04-27T03:09:01;97842.28;;;5.03;52.64
22181;BME280;11256;50.830;12.834;2023-04-27T03:14:03;97852.41;;;5.01;52.37
22181;BME280;11256;50.830;12.834;2023-04-27T03:19:03;97860.22;;;4.86;51.70
22181;BME280;11256;50.830;12.834;2023-04-27T03:24:04;97841.59;;;4.68;52.12
22181;BME280;11256;50.830;12.834;2023-04-27T03:29:05;97861.44;;;4.67;51.92
22181;BME280;11256;50.830;12.834;2023-04-27T03:34:05;97869.88;;;4.59;52.21
22181;BME280;11256;50.830;12.834;2023-04-27T03:39:06;97874.91;;;4.55;52.07
22181;BME280;11256;50.830;12.834;2023-04-27T03:44:08;97894.38;;;4.51;52.10
22181;BME280;11256;50.830;12.834;2023-04-27T03:49:08;97878.91;;;4.41;52.30
22181;BME280;11256;50.830;12.834;2023-04-27T03:54:09;97885.81;;;4.26;52.42
22181;BME280;11256;50.830;12.834;2023-04-27T03:59:09;97888.38;;;4.21;52.22
22181;BME280;11256;50.830;12.834;2023-04-27T04:04:12;97884.31;;;4.07;52.39
22181;BME280;11256;50.830;12.834;2023-04-27T04:09:12;97896.53;;;4.03;52.59
22181;BME280;11256;50.830;12.834;2023-04-27T04:14:13;97904.34;;;4.04;52.89
22181;BME280;11256;50.830;12.834;2023-04-27T04:19:14;97906.81;;;4.06;52.77
22181;BME280;11256;50.830;12.834;2023-04-27T04:24:15;97906.81;;;4.06;52.87
22181;BME280;11256;50.830;12.834;2023-04-27T04:29:15;97919.50;;;4.10;53.23
22181;BME280;11256;50.830;12.834;2023-04-27T04:34:15;97922.19;;;4.22;54.85
22181;BME280;11256;50.830;12.834;2023-04-27T04:39:17;97904.22;;;4.34;55.03
22181;BME280;11256;50.830;12.834;2023-04-27T04:44:20;97913.75;;;4.53;55.33
22181;BME280;11256;50.830;12.834;2023-04-27T04:49:21;97908.94;;;4.66;55.69
22181;BME280;11256;50.830;12.834;2023-04-27T04:54:23;97919.38;;;4.91;56.33
22181;BME280;11256;50.830;12.834;2023-04-27T04:59:23;97923.56;;;5.26;57.30
22181;BME280;11256;50.830;12.834;2023-04-27T05:04:24;97912.59;;;5.61;57.71
22181;BME280;11256;50.830;12.834;2023-04-27T05:09:25;97914.13;;;5.85;57.88
22181;BME280;11256;50.830;12.834;2023-04-27T05:14:25;97907.91;;;6.01;57.30
22181;BME280;11256;50.830;12.834;2023-04-27T05:19:29;97923.84;;;6.24;57.15
22181;BME280;11256;50.830;12.834;2023-04-27T05:24:30;97917.31;;;6.36;57.42
22181;BME280;11256;50.830;12.834;2023-04-27T05:29:30;97894.72;;;6.37;56.48
22181;BME280;11256;50.830;12.834;2023-04-27T05:34:31;97913.78;;;6.74;57.17
22181;BME280;11256;50.830;12.834;2023-04-27T05:39:31;97911.41;;;6.99;56.40
22181;BME280;11256;50.830;12.834;2023-04-27T05:44:31;97902.56;;;7.03;55.99
22181;BME280;11256;50.830;12.834;2023-04-27T05:49:32;97912.44;;;7.19;55.16
22181;BME280;11256;50.830;12.834;2023-04-27T05:54:32;97925.81;;;7.36;55.19
22181;BME280;11256;50.830;12.834;2023-04-27T05:59:32;97921.16;;;7.53;55.28
22181;BME280;11256;50.830;12.834;2023-04-27T06:04:33;97915.28;;;7.61;54.42
22181;BME280;11256;50.830;12.834;2023-04-27T06:09:34;97913.94;;;7.90;54.34
22181;BME280;11256;50.830;12.834;2023-04-27T06:14:35;97913.75;;;8.38;54.56
22181;BME280;11256;50.830;12.834;2023-04-27T06:19:36;97901.13;;;9.05;53.62
22181;BME280;11256;50.830;12.834;2023-04-27T06:24:36;97909.94;;;9.77;52.88
22181;BME280;11256;50.830;12.834;2023-04-27T06:29:37;97921.28;;;10.59;52.29
22181;BME280;11256;50.830;12.834;2023-04-27T06:34:37;97935.66;;;11.33;52.31
22181;BME280;11256;50.830;12.834;2023-04-27T06:39:37;97915.97;;;11.66;49.84
22181;BME280;11256;50.830;12.834;2023-04-27T06:44:38;97928.25;;;11.92;48.36
22181;BME280;11256;50.830;12.834;2023-04-27T06:49:39;97918.75;;;12.23;48.77
22181;BME280;11256;50.830;12.834;2023-04-27T06:54:39;97936.59;;;12.62;48.39
22181;BME280;11256;50.830;12.834;2023-04-27T06:59:40;97953.91;;;13.00;47.90
22181;BME280;11256;50.830;12.834;2023-04-27T07:04:40;97943.94;;;13.56;47.76
22181;BME280;11256;50.830;12.834;2023-04-27T07:09:40;97947.72;;;13.97;46.59
22181;BME280;11256;50.830;12.834;2023-04-27T07:14:41;97948.13;;;14.41;45.81
22181;BME280;11256;50.830;12.834;2023-04-27T07:19:42;97953.41;;;14.83;45.35
22181;BME280;11256;50.830;12.834;2023-04-27T07:24:42;97947.34;;;15.67;45.08
22181;BME280;11256;50.830;12.834;2023-04-27T07:29:42;97943.22;;;16.71;44.03
22181;BME280;11256;50.830;12.834;2023-04-27T07:34:43;97941.75;;;17.90;44.03
22181;BME280;11256;50.830;12.834;2023-04-27T07:39:43;97951.44;;;18.30;41.81
22181;BME280;11256;50.830;12.834;2023-04-27T07:44:44;97955.03;;;19.02;39.63
22181;BME280;11256;50.830;12.834;2023-04-27T07:49:44;97962.63;;;19.22;37.04
22181;BME280;11256;50.830;12.834;2023-04-27T07:54:47;97963.31;;;20.47;37.76
22181;BME280;11256;50.830;12.834;2023-04-27T07:59:48;97960.63;;;20.39;35.08
22181;BME280;11256;50.830;12.834;2023-04-27T08:04:48;97964.91;;;21.01;35.64
22181;BME280;11256;50.830;12.834;2023-04-27T08:09:50;97972.47;;;21.73;34.98
22181;BME280;11256;50.830;12.834;2023-04-27T08:14:51;97971.34;;;21.86;33.05
22181;BME280;11256;50.830;12.834;2023-04-27T08:19:52;97956.47;;;21.66;33.29
22181;BME280;11256;50.830;12.834;2023-04-27T08:24:52;97965.66;;;21.46;32.35
22181;BME280;11256;50.830;12.834;2023-04-27T08:29:52;97962.56;;;21.60;31.87
22181;BME280;11256;50.830;12.834;2023-04-27T08:34:52;97963.94;;;22.14;32.86
22181;BME280;11256;50.830;12.834;2023-04-27T08:39:53;97962.59;;;21.03;32.20
22181;BME280;11256;50.830;12.834;2023-04-27T08:44:53;97971.25;;;22.22;30.84
22181;BME280;11256;50.830;12.834;2023-04-27T08:49:53;97952.47;;;21.52;30.80
22181;BME280;11256;50.830;12.834;2023-04-27T08:54:54;97958.16;;;21.35;30.59
22181;BME280;11256;50.830;12.834;2023-04-27T08:59:58;97968.09;;;21.48;31.21
22181;BME280;11256;50.830;12.834;2023-04-27T09:05:18;97966.94;;;22.09;31.10
22181;BME280;11256;50.830;12.834;2023-04-27T09:10:18;97968.09;;;21.60;30.42
22181;BME280;11256;50.830;12.834;2023-04-27T09:15:19;97959.84;;;22.35;30.72
22181;BME280;11256;50.830;12.834;2023-04-27T09:20:19;97960.81;;;22.67;30.71
22181;BME280;11256;50.830;12.834;2023-04-27T09:25:30;97949.88;;;23.29;29.39
22181;BME280;11256;50.830;12.834;2023-04-27T09:30:31;97947.03;;;22.98;29.38
22181;BME280;11256;50.830;12.834;2023-04-27T09:35:32;97950.31;;;21.81;30.06
22181;BME280;11256;50.830;12.834;2023-04-27T09:40:32;97937.06;;;21.63;29.40
22181;BME280;11256;50.830;12.834;2023-04-27T09:45:32;97933.09;;;20.39;30.72
22181;BME280;11256;50.830;12.834;2023-04-27T09:50:38;97938.19;;;20.81;30.61
22181;BME280;11256;50.830;12.834;2023-04-27T09:55:51;97931.63;;;19.71;31.59
22181;BME280;11256;50.830;12.834;2023-04-27T10:01:13;97923.22;;;19.01;31.62
22181;BME280;11256;50.830;12.834;2023-04-27T10:11:41;97900.28;;;18.43;32.68
22181;BME280;11256;50.830;12.834;2023-04-27T10:16:46;97914.31;;;18.41;33.30
22181;BME280;11256;50.830;12.834;2023-04-27T10:21:59;97913.47;;;17.73;33.68
22181;BME280;11256;50.830;12.834;2023-04-27T10:27:04;97921.34;;;17.49;34.27
22181;BME280;11256;50.830;12.834;2023-04-27T10:32:06;97924.25;;;17.52;34.20
22181;BME280;11256;50.830;12.834;2023-04-27T10:37:09;97915.94;;;17.27;34.89
22181;BME280;11256;50.830;12.834;2023-04-27T10:42:10;97922.97;;;17.11;34.89
22181;BME280;11256;50.830;12.834;2023-04-27T10:47:13;97906.91;;;16.87;35.68
22181;BME280;11256;50.830;12.834;2023-04-27T10:52:14;97914.34;;;16.95;35.54
22181;BME280;11256;50.830;12.834;2023-04-27T10:57:15;97910.88;;;16.73;35.44
22181;BME280;11256;50.830;12.834;2023-04-27T11:02:16;97898.75;;;16.96;35.89
22181;BME280;11256;50.830;12.834;2023-04-27T11:07:27;97905.59;;;17.24;35.94
22181;BME280;11256;50.830;12.834;2023-04-27T11:12:30;97911.94;;;17.33;36.00
22181;BME280;11256;50.830;12.834;2023-04-27T11:17:31;97921.00;;;17.50;36.10
22181;BME280;11256;50.830;12.834;2023-04-27T11:22:31;97916.06;;;17.78;36.37
22181;BME280;11256;50.830;12.834;2023-04-27T11:27:36;97912.22;;;17.96;36.81
22181;BME280;11256;50.830;12.834;2023-04-27T11:32:37;97915.75;;;17.88;35.80
22181;BME280;11256;50.830;12.834;2023-04-27T11:37:38;97928.03;;;17.82;35.94
22181;BME280;11256;50.830;12.834;2023-04-27T11:42:38;97913.47;;;17.56;36.31
22181;BME280;11256;50.830;12.834;2023-04-27T11:47:45;97935.59;;;17.76;36.26
22181;BME280;11256;50.830;12.834;2023-04-27T11:52:47;97936.34;;;17.51;35.80
22181;BME280;11256;50.830;12.834;2023-04-27T11:57:48;97932.78;;;17.51;36.04
22181;BME280;11256;50.830;12.834;2023-04-27T12:02:48;97926.31;;;17.47;35.83
22181;BME280;11256;50.830;12.834;2023-04-27T12:07:48;97925.88;;;17.62;36.33
22181;BME280;11256;50.830;12.834;2023-04-27T12:12:49;97935.41;;;17.73;36.45
22181;BME280;11256;50.830;12.834;2023-04-27T12:17:49;97930.41;;;17.75;36.23
22181;BME280;11256;50.830;12.834;2023-04-27T12:22:50;97932.06;;;17.93;35.97
22181;BME280;11256;50.830;12.834;2023-04-27T12:27:50;97923.84;;;17.93;36.24
22181;BME280;11256;50.830;12.834;2023-04-27T12:32:51;97926.44;;;17.98;36.88
22181;BME280;11256;50.830;12.834;2023-04-27T12:37:51;97924.16;;;18.00;36.98
22181;BME280;11256;50.830;12.834;2023-04-27T12:42:52;97921.09;;;18.18;37.21
22181;BME280;11256;50.830;12.834;2023-04-27T12:47:52;97906.88;;;18.16;37.04
22181;BME280;11256;50.830;12.834;2023-04-27T12:52:53;97893.34;;;18.37;37.02
22181;BME280;11256;50.830;12.834;2023-04-27T12:57:57;97915.09;;;18.59;36.84
22181;BME280;11256;50.830;12.834;2023-04-27T13:02:57;97904.13;;;18.59;37.49
22181;BME280;11256;50.830;12.834;2023-04-27T13:07:57;97898.25;;;18.77;37.04
22181;BME280;11256;50.830;12.834;2023-04-27T13:12:58;97906.09;;;19.04;36.89
22181;BME280;11256;50.830;12.834;2023-04-27T13:17:59;97899.88;;;19.24;37.16
22181;BME280;11256;50.830;12.834;2023-04-27T13:23:02;97902.34;;;19.46;37.33
22181;BME280;11256;50.830;12.834;2023-04-27T13:28:03;97897.41;;;19.60;36.49
22181;BME280;11256;50.830;12.834;2023-04-27T13:33:04;97896.19;;;19.70;36.50
22181;BME280;11256;50.830;12.834;2023-04-27T13:38:04;97899.44;;;19.72;35.53
22181;BME280;11256;50.830;12.834;2023-04-27T13:43:04;97901.91;;;19.65;36.26
22181;BME280;11256;50.830;12.834;2023-04-27T13:48:05;97895.41;;;19.90;36.37
22181;BME280;11256;50.830;12.834;2023-04-27T13:53:08;97898.94;;;19.99;37.21
22181;BME280;11256;50.830;12.834;2023-04-27T13:58:09;97890.75;;;20.11;36.96
22181;BME280;11256;50.830;12.834;2023-04-27T14:03:10;97885.91;;;20.08;37.13
22181;BME280;11256;50.830;12.834;2023-04-27T14:08:10;97886.69;;;20.29;36.91
22181;BME280;11256;50.830;12.834;2023-04-27T14:13:11;97870.31;;;20.32;37.42
22181;BME280;11256;50.830;12.834;2023-04-27T14:18:12;97885.34;;;20.35;36.81
22181;BME280;11256;50.830;12.834;2023-04-27T14:23:12;97871.63;;;20.47;37.02
22181;BME280;11256;50.830;12.834;2023-04-27T14:28:12;97860.41;;;20.64;38.34
22181;BME280;11256;50.830;12.834;2023-04-27T14:33:13;97865.75;;;20.81;37.84
22181;BME280;11256;50.830;12.834;2023-04-27T14:38:14;97867.28;;;20.90;37.29
22181;BME280;11256;50.830;12.834;2023-04-27T14:43:14;97864.88;;;21.01;37.24
22181;BME280;11256;50.830;12.834;2023-04-27T14:48:16;97872.69;;;21.23;36.35
22181;BME280;11256;50.830;12.834;2023-04-27T14:53:16;97869.47;;;21.21;36.76
22181;BME280;11256;50.830;12.834;2023-04-27T14:58:16;97874.53;;;21.31;37.48
22181;BME280;11256;50.830;12.834;2023-04-27T15:03:17;97868.81;;;21.36;37.31
22181;BME280;11256;50.830;12.834;2023-04-27T15:08:17;97880.03;;;21.55;36.23
22181;BME280;11256;50.830;12.834;2023-04-27T15:13:17;97887.88;;;21.53;36.22
22181;BME280;11256;50.830;12.834;2023-04-27T15:18:17;97887.38;;;21.51;36.18
22181;BME280;11256;50.830;12.834;2023-04-27T15:23:19;97877.50;;;21.62;35.55
22181;BME280;11256;50.830;12.834;2023-04-27T15:28:20;97873.38;;;21.56;34.69
22181;BME280;11256;50.830;12.834;2023-04-27T15:33:20;97865.56;;;21.46;34.84
22181;BME280;11256;50.830;12.834;2023-04-27T15:38:21;97868.78;;;21.48;34.61
22181;BME280;11256;50.830;12.834;2023-04-27T15:43:22;97867.63;;;21.49;34.47
22181;BME280;11256;50.830;12.834;2023-04-27T15:48:22;97856.94;;;21.47;34.50
22181;BME280;11256;50.830;12.834;2023-04-27T15:53:22;97860.03;;;21.46;34.32
22181;BME280;11256;50.830;12.834;2023-04-27T15:58:23;97863.72;;;21.38;34.17
22181;BME280;11256;50.830;12.834;2023-04-27T16:03:25;97852.69;;;21.38;34.31
22181;BME280;11256;50.830;12.834;2023-04-27T16:08:27;97844.72;;;20.76;33.17
22181;BME280;11256;50.830;12.834;2023-04-27T16:13:27;97839.53;;;20.75;34.90
22181;BME280;11256;50.830;12.834;2023-04-27T16:18:28;97842.41;;;20.66;35.50
22181;BME280;11256;50.830;12.834;2023-04-27T16:23:28;97825.63;;;20.59;35.69
22181;BME280;11256;50.830;12.834;2023-04-27T16:28:28;97825.63;;;20.47;35.96
22181;BME280;11256;50.830;12.834;2023-04-27T16:33:29;97832.06;;;20.51;36.00
22181;BME280;11256;50.830;12.834;2023-04-27T16:38:30;97825.94;;;20.46;36.15
22181;BME280;11256;50.830;12.834;2023-04-27T16:43:30;97828.69;;;20.34;35.89
22181;BME280;11256;50.830;12.834;2023-04-27T16:48:32;97826.69;;;20.22;36.14
22181;BME280;11256;50.830;12.834;2023-04-27T16:53:32;97839.63;;;20.10;36.29
22181;BME280;11256;50.830;12.834;2023-04-27T16:58:32;97838.56;;;19.73;36.17
22181;BME280;11256;50.830;12.834;2023-04-27T17:03:35;97835.69;;;19.29;35.81
22181;BME280;11256;50.830;12.834;2023-04-27T17:08:35;97834.22;;;19.31;36.51
22181;BME280;11256;50.830;12.834;2023-04-27T17:13:36;97831.50;;;19.23;36.54
22181;BME280;11256;50.830;12.834;2023-04-27T17:18:36;97833.31;;;19.10;37.05
22181;BME280;11256;50.830;12.834;2023-04-27T17:23:37;97831.63;;;18.89;37.37
22181;BME280;11256;50.830;12.834;2023-04-27T17:28:38;97843.66;;;18.76;37.43
22181;BME280;11256;50.830;12.834;2023-04-27T17:33:38;97840.97;;;18.59;37.37
22181;BME280;11256;50.830;12.834;2023-04-27T17:38:38;97845.38;;;18.43;37.52
22181;BME280;11256;50.830;12.834;2023-04-27T17:43:38;97841.50;;;18.27;37.70
22181;BME280;11256;50.830;12.834;2023-04-27T17:48:39;97841.53;;;18.10;37.99
22181;BME280;11256;50.830;12.834;2023-04-27T17:53:39;97843.16;;;17.94;37.97
22181;BME280;11256;50.830;12.834;2023-04-27T17:58:39;97854.78;;;17.82;38.14
22181;BME280;11256;50.830;12.834;2023-04-27T18:03:40;97846.72;;;17.69;38.11
22181;BME280;11256;50.830;12.834;2023-04-27T18:08:41;97859.94;;;17.50;38.02
22181;BME280;11256;50.830;12.834;2023-04-27T18:13:41;97857.59;;;17.35;38.14
22181;BME280;11256;50.830;12.834;2023-04-27T18:18:41;97866.91;;;17.17;38.11
22181;BME280;11256;50.830;12.834;2023-04-27T18:23:42;97862.50;;;16.99;38.12
22181;BME280;11256;50.830;12.834;2023-04-27T18:28:43;97869.84;;;16.81;38.33
22181;BME280;11256;50.830;12.834;2023-04-27T18:33:44;97872.00;;;16.62;38.32
22181;BME280;11256;50.830;12.834;2023-04-27T18:38:45;97881.38;;;16.39;38.21
22181;BME280;11256;50.830;12.834;2023-04-27T18:43:47;97888.63;;;16.22;38.32
22181;BME280;11256;50.830;12.834;2023-04-27T18:48:47;97881.38;;;15.95;38.44
22181;BME280;11256;50.830;12.834;2023-04-27T18:53:47;97887.19;;;15.80;38.43
22181;BME280;11256;50.830;12.834;2023-04-27T18:58:48;97893.50;;;15.67;38.99
22181;BME280;11256;50.830;12.834;2023-04-27T19:03:49;97893.75;;;15.44;38.98
22181;BME280;11256;50.830;12.834;2023-04-27T19:08:49;97897.22;;;15.36;39.19
22181;BME280;11256;50.830;12.834;2023-04-27T19:13:50;97906.28;;;15.18;39.00
22181;BME280;11256;50.830;12.834;2023-04-27T19:18:50;97907.72;;;15.02;39.32
22181;BME280;11256;50.830;12.834;2023-04-27T19:23:51;97897.00;;;14.92;39.71
22181;BME280;11256;50.830;12.834;2023-04-27T19:28:51;97886.38;;;14.63;39.69
22181;BME280;11256;50.830;12.834;2023-04-27T19:33:52;97884.31;;;14.55;39.68
22181;BME280;11256;50.830;12.834;2023-04-27T19:38:52;97890.56;;;14.42;40.03
22181;BME280;11256;50.830;12.834;2023-04-27T19:43:52;97880.13;;;14.31;40.11
22181;BME280;11256;50.830;12.834;2023-04-27T19:48:53;97860.88;;;14.09;40.26
22181;BME280;11256;50.830;12.834;2023-04-27T19:53:53;97869.13;;;14.04;40.17
22181;BME280;11256;50.830;12.834;2023-04-27T19:58:53;97874.72;;;13.94;40.44
22181;BME280;11256;50.830;12.834;2023-04-27T20:03:54;97878.72;;;13.83;40.65
22181;BME280;11256;50.830;12.834;2023-04-27T20:08:54;97877.88;;;13.69;40.83
22181;BME280;11256;50.830;12.834;2023-04-27T20:13:55;97881.25;;;13.61;40.89
22181;BME280;11256;50.830;12.834;2023-04-27T20:18:55;97877.59;;;13.52;40.92
22181;BME280;11256;50.830;12.834;2023-04-27T20:23:56;97877.22;;;13.40;41.31
22181;BME280;11256;50.830;12.834;2023-04-27T20:28:56;97874.09;;;13.28;41.13
22181;BME280;11256;50.830;12.834;2023-04-27T20:33:56;97871.00;;;13.16;41.59
22181;BME280;11256;50.830;12.834;2023-04-27T20:38:57;97857.91;;;12.99;41.63
22181;BME280;11256;50.830;12.834;2023-04-27T20:44:00;97876.16;;;12.94;41.71
22181;BME280;11256;50.830;12.834;2023-04-27T20:49:01;97866.22;;;12.84;41.94
22181;BME280;11256;50.830;12.834;2023-04-27T20:54:02;97851.09;;;12.73;42.08
22181;BME280;11256;50.830;12.834;2023-04-27T20:59:02;97838.78;;;12.57;41.90
22181;BME280;11256;50.830;12.834;2023-04-27T21:04:03;97857.63;;;12.49;42.28
22181;BME280;11256;50.830;12.834;2023-04-27T21:09:03;97848.47;;;12.40;42.31
22181;BME280;11256;50.830;12.834;2023-04-27T21:14:04;97842.34;;;12.29;42.31
22181;BME280;11256;50.830;12.834;2023-04-27T21:19:04;97824.88;;;12.12;42.42
22181;BME280;11256;50.830;12.834;2023-04-27T21:24:05;97815.47;;;11.99;42.30
22181;BME280;11256;50.830;12.834;2023-04-27T21:29:05;97822.53;;;12.00;42.55
22181;BME280;11256;50.830;12.834;2023-04-27T21:34:07;97829.41;;;11.93;42.98
22181;BME280;11256;50.830;12.834;2023-04-27T21:39:07;97824.84;;;11.83;43.17
22181;BME280;11256;50.830;12.834;2023-04-27T21:44:08;97829.28;;;11.74;43.08
22181;BME280;11256;50.830;12.834;2023-04-27T21:49:11;97814.47;;;11.62;43.34
22181;BME280;11256;50.830;12.834;2023-04-27T21:54:11;97812.31;;;11.54;43.39
22181;BME280;11256;50.830;12.834;2023-04-27T21:59:12;97820.47;;;11.49;43.35
22181;BME280;11256;50.830;12.834;2023-04-27T22:04:12;97796.19;;;11.34;43.52
22181;BME280;11256;50.830;12.834;2023-04-27T22:09:13;97815.19;;;11.34;43.38
22181;BME280;11256;50.830;12.834;2023-04-27T22:14:13;97811.97;;;11.22;43.54
22181;BME280;11256;50.830;12.834;2023-04-27T22:19:13;97810.97;;;11.13;43.54
22181;BME280;11256;50.830;12.834;2023-04-27T22:24:14;97799.69;;;10.96;43.93
22181;BME280;11256;50.830;12.834;2023-04-27T22:29:14;97810.53;;;10.96;43.98
22181;BME280;11256;50.830;12.834;2023-04-27T22:34:15;97817.34;;;10.88;44.07
22181;BME280;11256;50.830;12.834;2023-04-27T22:39:15;97807.38;;;10.79;44.10
22181;BME280;11256;50.830;12.834;2023-04-27T22:44:17;97798.22;;;10.65;44.11
22181;BME280;11256;50.830;12.834;2023-04-27T22:49:17;97800.94;;;10.60;44.24
22181;BME280;11256;50.830;12.834;2023-04-27T22:54:17;97800.16;;;10.54;44.29
22181;BME280;11256;50.830;12.834;2023-04-27T22:59:18;97798.31;;;10.40;44.48
22181;BME280;11256;50.830;12.834;2023-04-27T23:04:21;97794.56;;;10.36;44.53
22181;BME280;11256;50.830;12.834;2023-04-27T23:09:22;97779.94;;;10.27;44.51
22181;BME280;11256;50.830;12.834;2023-04-27T23:14:22;97783.75;;;10.26;44.83
22181;BME280;11256;50.830;12.834;2023-04-27T23:19:22;97774.28;;;10.18;44.96
22181;BME280;11256;50.830;12.834;2023-04-27T23:24:23;97770.25;;;10.11;44.86
22181;BME280;11256;50.830;12.834;2023-04-27T23:29:23;97770.78;;;10.03;44.83
22181;BME280;11256;50.830;12.834;2023-04-27T23:34:24;97766.47;;;9.92;45.06
22181;BME280;11256;50.830;12.834;2023-04-27T23:39:26;97747.00;;;9.80;45.09
22181;BME280;11256;50.830;12.834;2023-04-27T23:44:26;97751.88;;;9.83;45.24
22181;BME280;11256;50.830;12.834;2023-04-27T23:49:27;97757.81;;;9.80;45.34
22181;BME280;11256;50.830;12.834;2023-04-27T23:54:30;97752.72;;;9.78;45.33
22181;BME280;11256;50.830;12.834;2023-04-27T23:59:35;97715.94;;;9.62;45.59
